Time;durP1;ratioP1;P1;durP2;ratioP2;P2;SDS_P1;SDS_P2;PMS_P1;PMS_P2;Temp;Humidity;BMP_temperature;BMP_pressure;BME280_temperature;BME280_humidity;BME280_pressure;Samples;Min_cycle;Max_cycle;Signal;HPM_P1;HPM_P2
2023/10/14 00:10:32;1613232.00;5.38;2858.05;75366.00;0.25;131.03;;;;;23.80;1.00;;;;;;2321613;40;3588;-88
2023/10/14 00:46:22;919046.00;3.06;1589.60;0.00;0.00;0.62;;;;;23.30;1.00;;;;;;2344094;55;3600;-89
2023/10/14 02:15:08;1463252.00;4.88;2574.16;0.00;0.00;0.62;;;;;22.50;1.00;;;;;;1897372;41;3461;-89
2023/10/14 02:32:58;1619874.00;5.40;2870.78;0.00;0.00;0.62;;;;;21.80;1.00;;;;;;2288601;56;3670;-89
2023/10/14 04:21:36;1170166.00;3.90;2036.37;3362.00;0.01;6.45;;;;;21.10;1.00;;;;;;2277878;61;1448;-87
2023/10/14 05:06:14;969748.00;3.23;1678.96;0.00;0.00;0.62;;;;;22.10;1.00;;;;;;2408697;40;3659;-88
2023/10/14 05:41:39;1042886.00;3.48;1808.58;0.00;0.00;0.62;;;;;22.90;1.00;;;;;;2452729;40;3605;-87
2023/10/14 06:58:05;995703.00;3.32;1724.86;0.00;0.00;0.62;;;;;21.60;1.00;;;;;;2509271;40;3527;31
2023/10/14 13:20:58;444642.00;1.48;766.57;16105.00;0.05;28.52;;;;;17.80;3.00;;;;;;2420586;40;3274;31
2023/10/14 13:28:45;70649.00;0.24;122.88;0.00;0.00;0.62;;;;;18.50;1.00;;;;;;2421364;40;3213;31
2023/10/14 15:14:22;345548.00;1.15;596.21;72156.00;0.24;125.49;;;;;15.90;1.00;;;;;;788418;59;2181;-87
2023/10/14 15:16:49;399608.00;1.33;689.13;86617.00;0.29;150.47;;;;;15.90;1.00;;;;;;2276419;61;1448;-90
2023/10/14 15:19:18;346012.00;1.15;597.01;71636.00;0.24;124.59;;;;;16.20;1.00;;;;;;2276477;61;1470;-88
2023/10/14 15:21:48;449100.00;1.50;774.23;78917.00;0.26;137.17;;;;;16.50;1.00;;;;;;2276391;61;1404;-90
2023/10/14 15:24:15;409286.00;1.36;705.77;115748.00;0.39;200.75;;;;;16.20;1.00;;;;;;2276531;61;1125;-89
2023/10/14 15:26:44;362443.00;1.21;625.25;79915.00;0.27;138.89;;;;;16.30;1.00;;;;;;2276469;61;1702;-88
2023/10/14 15:29:12;181200.00;0.60;313.56;82203.00;0.27;142.84;;;;;16.30;1.00;;;;;;2276452;61;1711;-87
2023/10/14 15:31:42;223663.00;0.75;386.65;94319.00;0.31;163.76;;;;;16.00;1.00;;;;;;2276431;61;1324;-88
2023/10/14 15:34:12;541082.00;1.80;932.59;79257.00;0.26;137.75;;;;;16.10;1.00;;;;;;2276589;61;1992;-87
2023/10/14 15:36:39;569300.00;1.90;981.24;77484.00;0.26;134.69;;;;;16.10;1.00;;;;;;2276478;61;1635;-88
2023/10/14 15:39:15;498462.00;1.66;859.18;88120.00;0.29;153.06;;;;;15.90;1.00;;;;;;2275104;61;2004;-87
2023/10/14 15:41:43;993866.00;3.31;1721.61;124807.00;0.42;216.37;;;;;15.60;1.00;;;;;;2276475;61;1601;-88
2023/10/14 15:44:14;880713.00;2.94;1522.27;107130.00;0.36;185.88;;;;;15.50;1.00;;;;;;2276673;61;1266;-88
2023/10/14 15:46:42;928812.00;3.10;1606.78;144674.00;0.48;250.63;;;;;16.00;1.00;;;;;;2276662;61;1669;-88
2023/10/14 15:49:13;835201.00;2.78;1442.58;199981.00;0.67;345.89;;;;;16.00;1.00;;;;;;2276484;61;1069;-88
2023/10/14 15:51:40;1052388.00;3.51;1825.48;21329.00;0.07;37.57;;;;;16.20;1.00;;;;;;2276527;61;1513;-88
2023/10/14 15:54:09;971333.00;3.24;1681.76;129107.00;0.43;223.79;;;;;16.60;1.00;;;;;;2276349;61;1996;-88
2023/10/14 15:56:50;664404.00;2.21;1145.56;99165.00;0.33;172.13;;;;;16.80;1.00;;;;;;2276604;61;1043;-86
2023/10/14 15:59:19;888458.00;2.96;1535.86;43905.00;0.15;76.64;;;;;17.10;1.00;;;;;;2276789;61;1116;-88
2023/10/14 16:01:50;725991.00;2.42;1252.34;4796.00;0.02;8.93;;;;;16.60;1.00;;;;;;2276631;61;1578;-90
2023/10/14 16:04:18;599017.00;2.00;1032.52;10662.00;0.04;19.10;;;;;16.00;1.00;;;;;;2276750;61;950;-89
2023/10/14 16:06:49;719336.00;2.40;1240.79;10918.00;0.04;19.54;;;;;16.40;1.00;;;;;;2276743;61;1647;-89
2023/10/14 16:09:20;376804.00;1.26;649.93;26863.00;0.09;47.15;;;;;16.90;1.00;;;;;;2276754;61;1308;-89
2023/10/14 16:11:51;757248.00;2.52;1306.66;81257.00;0.27;141.21;;;;;17.00;1.00;;;;;;2276683;61;1430;-88
2023/10/14 16:14:24;466785.00;1.56;804.66;19655.00;0.07;34.67;;;;;17.40;1.00;;;;;;2276698;61;2006;-88
2023/10/14 16:16:53;232586.00;0.78;402.00;0.00;0.00;0.62;;;;;16.70;1.00;;;;;;2276744;61;1576;-89
2023/10/14 16:19:23;146886.00;0.49;254.44;0.00;0.00;0.62;;;;;16.90;1.00;;;;;;2276554;61;1645;-87
2023/10/14 16:21:50;356507.00;1.19;615.05;11582.00;0.04;20.69;;;;;16.20;1.00;;;;;;2276518;61;1616;-88
2023/10/14 16:24:19;399773.00;1.33;689.41;41626.00;0.14;72.70;;;;;15.60;1.00;;;;;;2276628;61;994;-87
2023/10/14 16:26:47;264289.00;0.88;456.52;4279.00;0.01;8.04;;;;;15.80;1.00;;;;;;2276571;61;1468;-88
2023/10/14 16:29:16;241778.00;0.81;417.81;83327.00;0.28;144.78;;;;;16.10;1.00;;;;;;2276662;61;1055;-88
2023/10/14 16:31:48;19163.00;0.06;33.82;0.00;0.00;0.62;;;;;16.00;1.00;;;;;;2276499;61;1293;-89
2023/10/14 16:34:22;148496.00;0.49;257.22;0.00;0.00;0.62;;;;;16.50;1.00;;;;;;2276397;61;2001;-88
2023/10/14 16:36:52;9077.00;0.03;16.35;0.00;0.00;0.62;;;;;17.00;1.00;;;;;;2276632;61;1571;-89
2023/10/14 16:39:20;359962.00;1.20;620.98;59847.00;0.20;104.21;;;;;17.00;1.00;;;;;;2276605;61;945;-89
2023/10/14 16:44:26;808841.00;2.70;1396.55;23375.00;0.08;41.11;;;;;16.70;1.00;;;;;;2282496;61;1400;-88
2023/10/14 16:46:53;445968.00;1.49;768.85;97654.00;0.33;169.52;;;;;16.70;1.00;;;;;;2279587;61;1583;-84
2023/10/14 16:49:22;138236.00;0.46;239.53;0.00;0.00;0.62;;;;;16.50;1.00;;;;;;2279863;61;1149;-84
2023/10/14 16:51:49;0.00;0.00;0.62;0.00;0.00;0.62;;;;;16.40;1.00;;;;;;2280382;61;1340;-84
2023/10/14 16:54:17;70948.00;0.24;123.40;0.00;0.00;0.62;;;;;16.60;1.00;;;;;;2279590;61;1992;-85
2023/10/14 16:56:45;79915.00;0.27;138.89;0.00;0.00;0.62;;;;;16.90;1.00;;;;;;2279533;61;1188;-84
2023/10/14 16:59:12;49238.00;0.16;85.87;0.00;0.00;0.62;;;;;17.20;1.00;;;;;;2279621;61;1172;-86
2023/10/14 17:01:42;128386.00;0.43;222.55;23507.00;0.08;41.34;;;;;17.40;1.00;;;;;;2279919;61;1293;-84
2023/10/14 17:04:09;120130.00;0.40;208.31;0.00;0.00;0.62;;;;;17.50;1.00;;;;;;2279515;61;1185;-85
2023/10/14 17:06:38;152341.00;0.51;263.84;0.00;0.00;0.62;;;;;17.80;1.00;;;;;;2279471;61;1034;-84
2023/10/14 17:09:27;314203.00;1.05;542.33;66594.00;0.22;115.87;;;;;18.20;1.00;;;;;;2281098;61;1309;-86
2023/10/14 17:12:09;227616.00;0.76;393.45;61388.00;0.20;106.88;;;;;17.90;1.00;;;;;;2281320;61;1485;-85
2023/10/14 17:14:45;124607.00;0.42;216.03;0.00;0.00;0.62;;;;;17.90;1.00;;;;;;2281062;61;2017;-86
2023/10/14 17:17:50;330668.00;1.10;570.63;0.00;0.00;0.62;;;;;16.90;1.00;;;;;;2281009;61;1431;-86
2023/10/14 17:20:20;961021.00;3.20;1663.55;185761.00;0.62;321.41;;;;;17.10;1.00;;;;;;2281159;61;1062;-87
2023/10/14 17:22:53;475419.00;1.58;819.51;78760.00;0.26;136.90;;;;;17.10;1.00;;;;;;2280846;61;1447;-86
2023/10/14 18:25:12;61063.00;0.20;106.31;0.00;0.00;0.62;;;;;17.20;1.00;;;;;;1508381;40;3203;-89
2023/10/14 19:27:44;1149877.00;3.83;1999.85;8675.00;0.03;15.65;;;;;15.60;1.00;;;;;;1678550;40;3400;-85
2023/10/14 22:50:15;1085104.00;3.62;1883.81;0.00;0.00;0.62;;;;;14.60;1.00;;;;;;2371853;55;3688;31
